Aeroporto :
LOGIN :

Iscrizione | Disclaimer

   EN    FR    IT 

 










Sommario :    VFR   VFR Marginale   IFR   IFR Intensivo   IFR Molto Intensivo
Visibilità : 
Base nubi : 
>= 8 km
>= 3000ft
5 / 8 km
1000 / 3000 ft
1500m / 5 km
500 / 1000 ft
800 / 1500m
200 / 500 ft
< 800m
< 200 ft
Simboli :   Temporali  Nebbia  Neve Forte  Precipitazioni Forti  Vento > 20 kt
SIGMETs :   Varie  Temporali  Ghiacco  Turbolenza  Onda orograficha  Ceneri Vulcaniche






- Altitudine del aeroporto : 200 ft


EBBL - Klein Brogel AB

ULTIMO METAR :
  • 230125Z AUTO 19003KT 9999 BKN034/// 18/15 Q1017 BLU

METARs OBSOLETI :
  • 230055Z AUTO 19004KT 9999 BKN031/// 18/15 Q1017 BLU
  • 230025Z AUTO 21004KT 9999 BKN042/// 19/15 Q1017 BLU
  • 222355Z AUTO 22004KT 9999 FEW045/// 18/15 Q1017 BLU
  • 222325Z AUTO 19004KT 9999 FEW044/// 19/15 Q1017 BLU
  • 222255Z AUTO 21005KT 9999 BKN041/// 19/15 Q1017 BLU
  • 222225Z AUTO 19004KT 9999 BKN042/// BKN075/// 20/15 Q1017 BLU
  • 222155Z AUTO 19004KT 9999 FEW043/// SCT075/// 19/15 Q1017 BLU
  • 222125Z AUTO 19004KT 9999 NCD 19/15 Q1017 BLU
  • 222055Z AUTO 19004KT 9999 FEW044/// 19/15 Q1017 BLU

TAF TAF EBBL
Valido dal 22 a 19 ore il 23 a 07 ore UTC


221541Z 2219/2307 24007KT 9999 SCT030 OVC040
BECMG 2222/2300 21008KT SCT015 OVC020
TEMPO 2304/2307 4000 RA SHRA SCT010 BKN015 OVC020



MetMap, La meteo Aeronautica in un colpo d'occhio ! - Copyright ORBIFLY Dicembre 2007 - Disclaimer

ORBIFLY MET'MAP TEAM :

Programmazione e sviluppo : Alexandra Zaïnal
Concezione : Baudouin d'Aumeries
Supporto tecnico e logistico : Manuel Goepfert
Aiuto : Marc-Olivier Méhu
Aiuto per la traduzione : Arnaldo La Scala




FONTI E CREDITI :

   NOAA